Time;durP1;ratioP1;P1;durP2;ratioP2;P2;SDS_P1;SDS_P2;PMS_P1;PMS_P2;Temp;Humidity;BMP_temperature;BMP_pressure;BME280_temperature;BME280_humidity;BME280_pressure;Samples;Min_cycle;Max_cycle;Signal;HPM_P1;HPM_P2
2023/03/18 00:01:02;;;;;;;4.65;2.55;;;;;;;19.33;50.11;96587.03;10420670;28;20049;-47
2023/03/18 00:06:22;;;;;;;6.38;2.65;;;;;;;19.30;50.17;96585.75;10421125;28;20056;-47
2023/03/18 00:11:42;;;;;;;4.28;2.50;;;;;;;19.31;50.09;96589.25;10433881;28;20052;-48
2023/03/18 00:17:01;;;;;;;4.43;2.33;;;;;;;19.30;49.98;96584.97;10433394;28;20474;-49
2023/03/18 00:22:21;;;;;;;5.05;2.30;;;;;;;19.28;49.99;96587.97;10420002;28;20053;-49
2023/03/18 00:27:41;;;;;;;5.22;2.55;;;;;;;19.27;49.96;96593.72;10433140;28;20120;-49
2023/03/18 00:33:01;;;;;;;4.43;2.25;;;;;;;19.26;49.87;96589.44;10419694;28;20057;-49
2023/03/18 00:38:20;;;;;;;3.80;2.40;;;;;;;19.24;49.83;96597.84;10419240;28;20099;-49
2023/03/18 00:43:45;;;;;;;5.00;2.40;;;;;;;19.24;49.76;96599.78;10419574;28;20417;-48
2023/03/18 00:49:06;;;;;;;5.07;2.40;;;;;;;19.22;49.87;96594.69;10417531;28;20053;-48
2023/03/18 00:54:26;;;;;;;4.07;2.50;;;;;;;19.22;49.68;96593.91;10418557;28;20061;-49
2023/03/18 00:59:47;;;;;;;4.90;2.42;;;;;;;19.20;49.66;96596.16;10431876;28;20048;-49
2023/03/18 01:05:07;;;;;;;3.78;2.22;;;;;;;19.19;49.58;96591.84;10403561;28;20057;-48
2023/03/18 01:10:29;;;;;;;3.88;2.42;;;;;;;19.17;49.62;96595.69;10418415;28;20100;-47
2023/03/18 01:15:49;;;;;;;3.75;2.40;;;;;;;19.17;49.52;96592.19;10418078;28;20445;-47
2023/03/18 01:21:10;;;;;;;3.60;2.17;;;;;;;19.16;49.50;96596.78;10417193;28;20493;-46
2023/03/18 01:26:36;;;;;;;3.17;2.03;;;;;;;19.13;49.50;96585.84;10402592;28;20057;-49
2023/03/18 01:31:55;;;;;;;3.70;2.00;;;;;;;19.13;49.44;96591.25;10417578;28;20107;-49
2023/03/18 01:37:18;;;;;;;4.60;2.08;;;;;;;19.11;49.29;96593.47;10402205;28;20053;-47
2023/03/18 01:42:48;;;;;;;4.13;2.28;;;;;;;19.10;49.34;96581.91;10401724;28;20520;-50
2023/03/18 01:48:14;;;;;;;2.72;1.92;;;;;;;19.08;49.17;96573.34;10430113;28;20481;-48
2023/03/18 01:53:43;;;;;;;3.15;2.00;;;;;;;19.08;49.24;96586.81;10415776;28;20069;-49
2023/03/18 01:59:04;;;;;;;2.80;2.08;;;;;;;19.06;49.19;96580.97;10401390;28;20103;-49
2023/03/18 02:04:29;;;;;;;4.05;2.20;;;;;;;19.05;49.25;96587.50;10387747;28;20053;-50
2023/03/18 02:09:50;;;;;;;2.90;2.00;;;;;;;19.03;49.18;96581.59;10387511;28;20049;-49
2023/03/18 02:15:15;;;;;;;2.85;2.03;;;;;;;19.03;49.20;96583.53;10401006;28;20058;-47
2023/03/18 02:20:51;;;;;;;2.92;1.92;;;;;;;19.02;49.01;96588.13;10387191;28;20053;-48
2023/03/18 02:26:50;;;;;;;3.38;1.98;;;;;;;19.00;49.04;96587.66;10399976;28;20057;-47
2023/03/18 02:32:17;;;;;;;4.50;2.00;;;;;;;19.00;49.09;96584.97;10413556;28;20052;-48
2023/03/18 02:37:36;;;;;;;3.00;1.83;;;;;;;18.97;48.95;96588.31;10415206;28;20057;-47
2023/03/18 02:43:19;;;;;;;2.60;1.80;;;;;;;18.95;48.73;96591.34;10400415;28;20049;-48
2023/03/18 02:48:46;;;;;;;3.60;1.88;;;;;;;18.94;49.05;96595.16;10387215;28;20103;-47
2023/03/18 02:54:09;;;;;;;3.78;2.00;;;;;;;18.93;48.75;96603.56;10399953;28;20061;-49
2023/03/18 02:59:31;;;;;;;3.53;2.00;;;;;;;18.92;48.74;96612.81;10399344;28;20053;-48
2023/03/18 03:04:51;;;;;;;2.03;1.55;;;;;;;18.92;48.70;96615.50;10399335;28;20486;-48
2023/03/18 03:10:12;;;;;;;2.75;1.85;;;;;;;18.88;48.68;96623.44;10399437;28;20050;-47
2023/03/18 03:15:34;;;;;;;2.15;1.55;;;;;;;18.87;48.60;96621.84;10419547;28;20045;-49
2023/03/18 03:20:54;;;;;;;2.83;1.67;;;;;;;18.87;48.59;96621.06;10407341;28;20119;-47
2023/03/18 03:26:15;;;;;;;2.88;1.63;;;;;;;18.85;48.68;96624.09;10421876;28;20501;-48
2023/03/18 03:31:35;;;;;;;2.53;1.70;;;;;;;18.82;48.65;96623.94;10407329;28;20127;-47
2023/03/18 03:36:58;;;;;;;2.03;1.65;;;;;;;18.83;48.51;96639.03;10407094;28;20052;-49
2023/03/18 03:42:19;;;;;;;2.22;1.67;;;;;;;18.81;48.46;96633.94;10406668;28;20061;-47
2023/03/18 03:47:39;;;;;;;2.35;1.60;;;;;;;18.80;48.50;96653.16;10421525;28;20053;-48
2023/03/18 03:53:01;;;;;;;3.15;1.70;;;;;;;18.77;48.33;96649.97;10416192;28;20389;-47
2023/03/18 03:58:21;;;;;;;2.25;1.77;;;;;;;18.75;48.35;96646.00;10406193;28;20057;-47
2023/03/18 04:03:41;;;;;;;2.03;1.50;;;;;;;18.75;48.46;96659.50;10419277;28;20103;-46
2023/03/18 04:09:03;;;;;;;1.88;1.70;;;;;;;18.73;48.32;96665.22;10434026;28;20053;-48
2023/03/18 04:14:24;;;;;;;2.13;1.45;;;;;;;18.72;48.15;96669.03;10405650;28;20068;-49
2023/03/18 04:19:44;;;;;;;2.20;1.70;;;;;;;18.72;48.25;96670.94;10419674;28;20050;-47
2023/03/18 04:25:04;;;;;;;2.40;1.80;;;;;;;18.70;48.38;96667.75;10420235;28;20057;-47
2023/03/18 04:30:25;;;;;;;4.40;1.65;;;;;;;18.68;48.25;96673.50;10419340;28;20053;-49
2023/03/18 04:35:51;;;;;;;2.08;1.38;;;;;;;18.69;48.15;96674.28;10405030;28;20068;-48
2023/03/18 04:41:11;;;;;;;2.38;1.38;;;;;;;18.66;48.27;96670.31;10417578;28;20473;-47
2023/03/18 04:46:32;;;;;;;2.05;1.60;;;;;;;18.64;48.17;96674.44;10404389;28;20049;-50
2023/03/18 04:51:52;;;;;;;2.22;1.55;;;;;;;18.63;48.07;96673.66;10404225;28;20053;-47
2023/03/18 04:57:20;;;;;;;1.92;1.40;;;;;;;18.63;48.06;96689.06;10403845;28;20050;-49
2023/03/18 05:02:47;;;;;;;2.20;1.50;;;;;;;18.60;48.06;96676.19;10417000;28;20489;-48
2023/03/18 05:08:06;;;;;;;1.80;1.52;;;;;;;18.61;48.07;96677.78;10418276;28;20049;-47
2023/03/18 05:13:27;;;;;;;2.13;1.50;;;;;;;18.59;48.06;96675.41;10402683;28;20049;-49
2023/03/18 05:18:47;;;;;;;1.52;1.30;;;;;;;18.56;47.99;96679.56;10417931;28;20095;-47
2023/03/18 05:24:08;;;;;;;1.70;1.48;;;;;;;18.57;48.13;96691.13;10402758;28;20060;-47
2023/03/18 05:29:32;;;;;;;1.48;1.30;;;;;;;18.54;47.86;96683.66;10402076;28;20049;-48
2023/03/18 05:35:12;;;;;;;1.50;1.40;;;;;;;18.53;47.83;96684.78;10416517;28;20057;-47
2023/03/18 05:40:42;;;;;;;1.45;1.30;;;;;;;18.51;47.81;96689.72;10402188;28;20072;-47
2023/03/18 05:46:12;;;;;;;2.15;1.50;;;;;;;18.50;47.80;96680.84;10402020;28;20111;-48
2023/03/18 05:51:58;;;;;;;1.83;1.50;;;;;;;18.50;47.71;96690.81;10406133;28;20049;-48
2023/03/18 05:57:28;;;;;;;2.00;1.38;;;;;;;18.49;47.75;96692.72;10401642;28;20053;-49
2023/03/18 06:02:52;;;;;;;2.20;1.40;;;;;;;18.46;47.77;96698.75;10401685;28;20053;-47
2023/03/18 06:08:13;;;;;;;1.67;1.50;;;;;;;18.46;47.82;96704.13;10416338;28;20412;-48
2023/03/18 06:13:33;;;;;;;2.03;1.55;;;;;;;18.45;47.85;96702.56;10401351;28;20073;-48
2023/03/18 06:18:53;;;;;;;1.67;1.38;;;;;;;18.45;47.83;96699.09;10415861;28;20054;-47
2023/03/18 06:24:16;;;;;;;1.70;1.38;;;;;;;18.44;47.86;96700.19;10400571;28;20065;-48
2023/03/18 06:29:36;;;;;;;1.95;1.38;;;;;;;18.44;47.78;96710.97;10400150;28;20065;-50
2023/03/18 06:35:02;;;;;;;1.65;1.42;;;;;;;18.41;47.91;96690.84;10400075;28;20058;-48
2023/03/18 06:40:24;;;;;;;1.85;1.40;;;;;;;18.41;48.02;96701.63;10400483;28;20049;-49
2023/03/18 06:45:45;;;;;;;1.95;1.42;;;;;;;18.41;48.16;96700.84;10400217;28;20493;-48
2023/03/18 06:51:06;;;;;;;1.80;1.50;;;;;;;18.39;48.15;96695.75;10435754;28;20045;-48
2023/03/18 06:56:32;;;;;;;1.98;1.50;;;;;;;18.39;48.33;96709.25;10380715;28;20066;-48
2023/03/18 07:01:59;;;;;;;1.92;1.60;;;;;;;18.41;48.71;96714.31;10381548;28;20058;-50
2023/03/18 07:07:21;;;;;;;1.67;1.17;;;;;;;18.42;48.91;96718.59;10382047;28;20057;-47
2023/03/18 07:12:41;;;;;;;1.85;1.58;;;;;;;18.44;49.02;96725.25;10381556;28;20084;-47
2023/03/18 07:18:01;;;;;;;2.25;1.40;;;;;;;18.46;49.34;96731.13;10381615;28;20069;-48
2023/03/18 07:23:21;;;;;;;1.20;1.10;;;;;;;18.49;49.45;96743.19;10380068;28;20510;-47
2023/03/18 07:28:42;;;;;;;1.70;1.50;;;;;;;18.51;49.38;96747.16;10379730;28;20060;-47
2023/03/18 07:34:02;;;;;;;1.90;1.35;;;;;;;18.54;49.55;96748.41;10380388;28;20410;-48
2023/03/18 07:39:22;;;;;;;1.38;1.25;;;;;;;18.55;49.40;96740.00;10394088;28;20410;-48
2023/03/18 07:44:41;;;;;;;3.35;1.10;;;;;;;18.58;49.50;96743.97;10393741;28;20050;-51
2023/03/18 07:50:01;;;;;;;1.58;1.30;;;;;;;18.62;49.74;96749.50;10380782;28;20076;-47
2023/03/18 07:55:21;;;;;;;4.50;3.25;;;;;;;17.86;37.75;96746.16;10409059;28;20053;-49
2023/03/18 08:00:41;;;;;;;1.92;1.80;;;;;;;17.98;43.19;96746.31;10420605;28;20056;-49
2023/03/18 08:06:01;;;;;;;2.40;1.80;;;;;;;18.24;45.41;96742.06;10420702;28;20057;-47
2023/03/18 08:11:21;;;;;;;3.25;2.00;;;;;;;18.38;44.17;96748.09;10420544;28;20046;-47
2023/03/18 08:16:41;;;;;;;2.92;2.20;;;;;;;18.47;43.99;96746.19;10419576;28;20053;-47
2023/03/18 08:22:00;;;;;;;3.42;2.40;;;;;;;18.55;43.86;96744.63;10420011;28;20060;-47
2023/03/18 08:27:20;;;;;;;2.10;1.90;;;;;;;18.62;43.93;96744.13;10420048;28;20052;-47
2023/03/18 08:32:40;;;;;;;2.25;2.05;;;;;;;18.65;43.85;96736.19;10432747;28;20048;-49
2023/03/18 08:38:00;;;;;;;2.75;1.92;;;;;;;18.70;44.34;96730.63;10419008;28;20050;-48
2023/03/18 08:43:21;;;;;;;2.28;2.05;;;;;;;18.74;45.01;96731.56;10419255;28;20053;-47
2023/03/18 08:48:40;;;;;;;3.33;1.80;;;;;;;18.80;45.12;96736.81;10419257;28;20057;-48
2023/03/18 08:54:00;;;;;;;3.35;1.92;;;;;;;18.85;45.43;96739.34;10418487;28;20068;-49
2023/03/18 08:59:20;;;;;;;4.03;2.03;;;;;;;18.90;45.57;96750.00;10419134;28;20053;-47
2023/03/18 09:04:40;;;;;;;2.80;2.10;;;;;;;18.95;45.98;96752.50;10418732;28;20053;-51
2023/03/18 09:09:59;;;;;;;3.38;1.83;;;;;;;18.97;43.09;96758.38;10430736;28;20526;-48
2023/03/18 09:15:19;;;;;;;3.97;2.45;;;;;;;19.01;45.47;96759.31;10418079;28;20057;-48
2023/03/18 09:20:40;;;;;;;2.63;2.00;;;;;;;19.04;44.47;96747.91;10417843;28;20405;-48
2023/03/18 09:26:00;;;;;;;4.05;2.40;;;;;;;19.07;44.61;96749.97;10417718;28;20053;-50
2023/03/18 09:31:19;;;;;;;3.78;2.20;;;;;;;19.10;44.85;96746.59;10430524;28;20042;-48
2023/03/18 09:36:40;;;;;;;3.60;2.10;;;;;;;19.15;45.07;96743.75;10430379;28;20084;-48
2023/03/18 09:42:12;;;;;;;3.70;2.20;;;;;;;19.20;45.15;96752.78;10416958;28;20057;-49
2023/03/18 09:47:35;;;;;;;3.10;1.77;;;;;;;19.23;44.15;96746.72;10416896;28;20050;-48
2023/03/18 09:53:09;;;;;;;3.55;2.17;;;;;;;19.24;44.22;96743.69;10416576;28;20061;-51
2023/03/18 09:58:52;;;;;;;2.85;2.00;;;;;;;19.28;44.31;96744.63;10416308;28;20053;-47
2023/03/18 10:04:32;;;;;;;2.78;2.10;;;;;;;19.32;44.24;96744.78;10416176;28;20060;-50
2023/03/18 10:09:59;;;;;;;3.72;2.30;;;;;;;19.36;44.15;96753.81;10401264;28;20444;-48
2023/03/18 10:15:35;;;;;;;2.90;2.08;;;;;;;19.39;44.45;96744.31;10401553;28;20136;-50
2023/03/18 10:21:20;;;;;;;3.47;2.00;;;;;;;19.42;44.38;96744.41;10414853;28;20057;-49
2023/03/18 10:26:49;;;;;;;3.15;2.00;;;;;;;19.44;44.49;96739.47;10401004;28;20053;-49
2023/03/18 10:32:23;;;;;;;;;;;;;;;19.48;44.45;96753.94;10416016;28;20060;-48
2023/03/18 10:37:55;;;;;;;2.70;2.13;;;;;;;19.50;41.42;96757.13;10400440;28;19932;-49
2023/03/18 10:43:18;;;;;;;2.75;2.17;;;;;;;19.54;43.25;96758.06;10399724;28;20064;-49
2023/03/18 10:48:42;;;;;;;3.30;2.40;;;;;;;19.58;43.38;96771.69;10415153;28;20045;-50
2023/03/18 10:54:23;;;;;;;9.60;3.25;;;;;;;19.56;38.90;96769.34;10414788;28;20057;-48
2023/03/18 10:59:44;;;;;;;3.65;2.47;;;;;;;19.61;41.97;96768.34;10414922;28;20077;-48
2023/03/18 11:05:14;;;;;;;5.00;2.50;;;;;;;19.65;42.56;96765.78;10414963;28;20054;-48
2023/03/18 11:10:44;;;;;;;5.55;3.15;;;;;;;19.69;42.60;96750.50;10414650;28;20057;-48
2023/03/18 11:16:05;;;;;;;6.78;2.67;;;;;;;19.73;42.26;96754.16;10413833;28;20058;-50
2023/03/18 11:21:28;;;;;;;5.25;3.35;;;;;;;19.76;37.74;96750.81;10414107;28;20065;-50
2023/03/18 11:26:53;;;;;;;8.60;3.60;;;;;;;19.79;40.69;96752.84;10414204;28;20409;-50
2023/03/18 11:32:32;;;;;;;8.30;3.08;;;;;;;19.80;39.11;96749.06;10414259;28;20128;-48
2023/03/18 11:37:52;;;;;;;5.15;2.90;;;;;;;19.83;37.46;96732.16;10434962;28;20045;-49
2023/03/18 11:43:21;;;;;;;6.45;3.97;;;;;;;19.86;37.67;96722.63;10421447;28;20057;-49
2023/03/18 11:48:42;;;;;;;4.80;3.80;;;;;;;19.86;37.87;96726.13;10434872;28;20049;-47
2023/03/18 11:54:20;;;;;;;6.07;3.75;;;;;;;19.87;33.61;96710.69;10406099;28;20057;-50
2023/03/18 12:00:27;;;;;;;3.53;2.90;;;;;;;19.93;35.37;96703.97;10434051;28;20053;-49
2023/03/18 12:05:58;;;;;;;4.32;3.22;;;;;;;19.93;35.42;96698.53;10414378;28;20383;-48
2023/03/18 12:11:31;;;;;;;4.43;3.47;;;;;;;19.93;35.48;96695.84;10405394;28;20050;-51
2023/03/18 12:17:14;;;;;;;4.40;3.53;;;;;;;19.92;34.65;96697.75;10420527;28;20417;-50
2023/03/18 12:22:59;;;;;;;4.72;3.83;;;;;;;19.94;35.04;96700.16;10405406;28;20049;-49
2023/03/18 12:28:31;;;;;;;5.95;4.05;;;;;;;19.93;34.47;96693.94;10420129;28;20156;-48
2023/03/18 12:34:00;;;;;;;4.53;3.42;;;;;;;19.95;34.16;96686.31;10419843;28;20056;-51
2023/03/18 12:39:37;;;;;;;6.32;3.97;;;;;;;19.98;34.15;96686.75;10418083;28;20477;-49
2023/03/18 12:45:02;;;;;;;7.82;4.07;;;;;;;19.99;34.23;96696.44;10431375;28;20042;-48
2023/03/18 12:50:52;;;;;;;12.25;4.00;;;;;;;19.98;33.44;96689.47;10419216;28;20112;-51
2023/03/18 12:56:18;;;;;;;7.57;4.32;;;;;;;19.98;34.06;96684.84;10356694;28;20061;-50
2023/03/18 13:02:14;;;;;;;8.15;4.53;;;;;;;19.98;33.61;96689.47;10377031;28;20049;-48
2023/03/18 13:07:43;;;;;;;9.27;4.60;;;;;;;20.00;33.50;96689.94;10390844;28;20049;-46
2023/03/18 13:13:06;;;;;;;5.70;3.85;;;;;;;20.00;33.34;96684.53;10376554;28;20058;-47
2023/03/18 13:18:51;;;;;;;10.02;5.28;;;;;;;20.02;33.34;96674.16;10376707;28;20050;-47
2023/03/18 13:24:53;;;;;;;7.97;4.43;;;;;;;20.02;34.07;96674.16;10376291;28;20057;-51
2023/03/18 13:30:40;;;;;;;8.70;4.45;;;;;;;20.03;34.80;96664.91;10251263;29;20125;-48
2023/03/18 13:36:19;;;;;;;6.15;3.88;;;;;;;20.05;35.46;96668.91;10376635;28;20049;-49
2023/03/18 13:41:57;;;;;;;7.15;4.22;;;;;;;20.07;34.98;96672.06;10389191;28;20038;-47
2023/03/18 13:47:18;;;;;;;;;;;;;;;20.08;35.08;96672.84;10376461;28;20053;-46
2023/03/18 13:52:38;;;;;;;8.55;5.45;;;;;;;20.05;30.27;96654.56;10392513;28;19927;-44
2023/03/18 13:58:04;;;;;;;7.25;5.93;;;;;;;19.99;29.98;96659.38;10415910;28;20057;-45
2023/03/18 14:03:29;;;;;;;9.18;6.35;;;;;;;19.93;28.51;96656.09;10416494;28;20057;-45
2023/03/18 14:08:52;;;;;;;8.27;6.30;;;;;;;19.90;28.68;96664.84;10414534;28;20061;-46
2023/03/18 14:15:01;;;;;;;13.95;6.55;;;;;;;19.85;28.44;96664.25;10416068;28;20053;-47
2023/03/18 14:20:37;;;;;;;11.73;6.50;;;;;;;19.80;28.73;96646.34;10355940;28;20050;-45
2023/03/18 14:26:18;;;;;;;9.50;6.75;;;;;;;19.76;27.85;96650.81;10415636;28;20061;-48
2023/03/18 14:31:37;;;;;;;9.55;7.20;;;;;;;19.72;27.92;96652.59;10428628;28;20052;-45
2023/03/18 14:36:57;;;;;;;9.13;7.25;;;;;;;19.68;28.29;96657.03;10415245;28;20064;-47
2023/03/18 14:42:42;;;;;;;8.85;7.13;;;;;;;19.64;27.29;96656.91;10415283;28;20057;-46
2023/03/18 14:48:10;;;;;;;10.50;7.38;;;;;;;19.63;28.33;96649.91;10415325;28;20053;-47
2023/03/18 14:53:41;;;;;;;9.23;7.13;;;;;;;19.58;28.01;96633.09;10408538;28;20053;-47
2023/03/18 14:59:01;;;;;;;9.18;7.78;;;;;;;19.52;27.42;96638.69;10386402;28;20052;-47
2023/03/18 15:04:22;;;;;;;11.43;8.40;;;;;;;19.15;27.11;96626.81;10414964;28;20057;-45
2023/03/18 15:09:42;;;;;;;9.25;7.35;;;;;;;19.26;27.87;96624.53;10417778;28;20555;-45
2023/03/18 15:15:04;;;;;;;8.40;7.00;;;;;;;19.30;27.66;96625.47;10423114;28;20058;-46
2023/03/18 15:20:24;;;;;;;8.82;7.65;;;;;;;19.41;27.87;96625.91;10424167;28;20054;-47
2023/03/18 15:25:48;;;;;;;12.60;9.50;;;;;;;19.49;27.94;96631.25;10423572;28;20061;-46
2023/03/18 15:31:07;;;;;;;10.90;8.23;;;;;;;19.54;27.95;96631.06;10421632;28;20548;-45
2023/03/18 15:36:27;;;;;;;10.40;8.32;;;;;;;19.51;28.00;96623.59;10407257;28;20049;-46
2023/03/18 15:41:52;;;;;;;10.27;8.15;;;;;;;19.48;27.78;96629.66;10421559;28;20053;-44
2023/03/18 15:47:28;;;;;;;8.45;7.15;;;;;;;19.52;29.29;96627.09;10421518;28;20054;-45
2023/03/18 15:52:47;;;;;;;8.90;6.95;;;;;;;19.61;31.26;96627.03;10420893;28;20056;-45
2023/03/18 15:58:36;;;;;;;10.90;6.38;;;;;;;19.68;32.51;96632.69;10420478;28;20492;-44
2023/03/18 16:03:56;;;;;;;7.47;6.38;;;;;;;19.74;35.80;96644.94;10420773;28;20057;-45
2023/03/18 16:09:17;;;;;;;7.10;6.05;;;;;;;19.75;35.82;96650.00;10420727;28;20123;-47
2023/03/18 16:14:38;;;;;;;7.75;6.07;;;;;;;19.79;35.67;96650.16;10420836;28;20060;-45
2023/03/18 16:19:59;;;;;;;7.47;5.43;;;;;;;19.83;37.84;96659.19;10420164;28;20053;-47
2023/03/18 16:25:18;;;;;;;6.90;5.35;;;;;;;19.85;38.40;96648.81;10420279;28;20065;-46
2023/03/18 16:30:39;;;;;;;8.02;5.85;;;;;;;19.87;38.48;96668.22;10419839;28;20100;-43
2023/03/18 16:36:00;;;;;;;9.38;5.55;;;;;;;19.89;38.57;96670.59;10433257;28;20045;-45
2023/03/18 16:41:20;;;;;;;9.18;5.72;;;;;;;19.91;38.80;96673.75;10418153;28;20056;-44
2023/03/18 16:46:40;;;;;;;7.53;5.60;;;;;;;19.92;38.98;96680.75;10419363;28;20057;-43
2023/03/18 16:52:02;;;;;;;7.63;5.28;;;;;;;19.94;39.13;96687.41;10404325;28;20382;-44
2023/03/18 16:57:22;;;;;;;7.55;5.65;;;;;;;19.95;39.61;96697.13;10418794;28;20053;-45
2023/03/18 17:02:42;;;;;;;8.98;5.38;;;;;;;19.97;39.98;96693.28;10417218;28;20045;-46
2023/03/18 17:08:01;;;;;;;8.23;4.95;;;;;;;19.99;40.51;96691.03;10418656;28;20111;-44
2023/03/18 17:13:23;;;;;;;5.63;4.90;;;;;;;20.00;40.76;96688.00;10418787;28;20076;-45
2023/03/18 17:18:43;;;;;;;6.82;5.55;;;;;;;20.01;40.65;96686.88;10418222;28;20046;-45
2023/03/18 17:24:02;;;;;;;7.55;5.40;;;;;;;20.04;40.52;96685.44;10417749;28;20057;-46
2023/03/18 17:29:24;;;;;;;7.07;5.05;;;;;;;20.05;40.66;96689.72;10430580;28;20045;-45
2023/03/18 17:34:50;;;;;;;7.47;5.40;;;;;;;20.06;40.75;96685.91;10416795;28;20057;-45
2023/03/18 17:40:13;;;;;;;7.45;4.82;;;;;;;20.07;40.98;96676.66;10416999;28;20057;-46
2023/03/18 17:45:33;;;;;;;8.18;4.75;;;;;;;20.09;41.72;96672.50;10417203;28;20053;-47
2023/03/18 17:50:55;;;;;;;7.43;4.82;;;;;;;20.11;42.26;96669.47;10401802;28;20046;-45
2023/03/18 17:56:17;;;;;;;11.57;4.75;;;;;;;20.12;42.51;96669.13;10415719;28;20072;-45
2023/03/18 18:01:37;;;;;;;8.85;5.57;;;;;;;20.16;42.42;96669.28;10416658;28;20041;-47
2023/03/18 18:06:57;;;;;;;8.13;4.75;;;;;;;20.18;42.71;96671.66;10416250;28;20057;-49
2023/03/18 18:12:23;;;;;;;6.88;4.75;;;;;;;20.19;42.94;96679.44;10429085;28;20045;-48
2023/03/18 18:17:45;;;;;;;5.88;4.70;;;;;;;20.21;43.67;96676.38;10401454;28;20065;-46
2023/03/18 18:23:04;;;;;;;7.13;4.80;;;;;;;20.23;43.79;96672.25;10415634;28;20104;-47
2023/03/18 18:28:28;;;;;;;8.38;4.55;;;;;;;20.23;43.89;96674.13;10415306;28;20115;-50
2023/03/18 18:33:49;;;;;;;5.85;4.50;;;;;;;20.24;43.94;96670.31;10414867;28;20497;-50
2023/03/18 18:39:08;;;;;;;5.68;4.50;;;;;;;20.24;44.08;96673.03;10428608;28;20041;-47
2023/03/18 18:44:28;;;;;;;6.57;4.75;;;;;;;20.24;44.02;96676.50;10415104;28;20053;-49
2023/03/18 18:49:47;;;;;;;5.35;4.38;;;;;;;20.26;44.24;96678.91;10414964;28;20049;-47
2023/03/18 18:55:09;;;;;;;6.25;4.72;;;;;;;20.27;43.88;96673.16;10418676;28;20053;-48
2023/03/18 19:00:28;;;;;;;8.07;5.00;;;;;;;20.25;44.03;96675.41;10414322;28;20060;-47
2023/03/18 19:05:50;;;;;;;7.78;4.70;;;;;;;20.26;44.24;96673.47;10414575;28;20496;-47
2023/03/18 19:11:10;;;;;;;8.27;4.80;;;;;;;20.26;44.42;96682.38;10414545;28;20045;-48
2023/03/18 19:16:31;;;;;;;9.02;4.82;;;;;;;20.24;44.76;96687.34;10414695;28;20049;-48
2023/03/18 19:21:51;;;;;;;7.45;4.80;;;;;;;20.26;44.80;96687.00;10413853;28;20421;-49
2023/03/18 19:27:22;;;;;;;6.50;4.55;;;;;;;20.25;45.15;96693.56;10414420;28;20053;-45
2023/03/18 19:32:42;;;;;;;7.40;4.70;;;;;;;20.25;45.11;96685.44;10414678;28;20057;-46
2023/03/18 19:43:31;;;;;;;8.40;4.57;;;;;;;20.27;45.44;96680.50;9549613;23;20056;-55
2023/03/18 19:48:51;;;;;;;6.97;4.45;;;;;;;20.30;45.55;96677.88;10386614;28;20049;-55
2023/03/18 19:54:31;;;;;;;5.28;4.07;;;;;;;20.34;45.98;96680.72;10387677;28;20042;-55
2023/03/18 19:59:52;;;;;;;6.15;4.60;;;;;;;20.37;45.66;96673.88;10378989;28;20053;-55
2023/03/18 20:05:17;;;;;;;5.80;4.20;;;;;;;20.37;45.78;96677.38;10393780;28;20038;-55
2023/03/18 20:10:41;;;;;;;4.95;4.15;;;;;;;20.40;45.93;96675.91;10393570;28;20045;-53
2023/03/18 20:16:01;;;;;;;6.30;4.18;;;;;;;20.39;45.84;96677.03;10393196;28;20075;-56
2023/03/18 20:21:29;;;;;;;4.53;3.80;;;;;;;20.39;46.10;96667.00;10392869;28;20089;-56
2023/03/18 20:26:49;;;;;;;6.22;4.40;;;;;;;20.40;45.96;96665.09;10392634;28;20053;-56
2023/03/18 20:32:08;;;;;;;4.93;3.88;;;;;;;20.39;45.99;96666.22;10392182;28;20045;-56
2023/03/18 20:37:32;;;;;;;5.38;4.07;;;;;;;20.39;45.93;96667.00;10377440;28;20478;-54
2023/03/18 20:42:51;;;;;;;4.78;4.00;;;;;;;20.39;45.94;96658.09;10383027;28;20104;-53
2023/03/18 20:48:12;;;;;;;5.35;4.03;;;;;;;20.38;45.99;96664.63;10392009;28;20497;-54
2023/03/18 20:53:31;;;;;;;4.95;3.83;;;;;;;20.38;45.95;96656.50;10391415;28;20041;-54
2023/03/18 20:58:51;;;;;;;5.32;4.10;;;;;;;20.36;46.08;96656.84;10391468;28;20406;-54
2023/03/18 21:04:12;;;;;;;4.80;3.80;;;;;;;20.35;46.02;96657.97;10391346;28;20431;-53
2023/03/18 21:09:31;;;;;;;4.60;3.83;;;;;;;20.34;46.04;96670.69;10389896;28;20069;-54
2023/03/18 21:14:51;;;;;;;5.65;4.10;;;;;;;20.33;46.03;96668.34;10391050;28;20046;-54
2023/03/18 21:20:13;;;;;;;4.63;3.97;;;;;;;20.31;46.04;96670.59;10390461;28;20034;-54
2023/03/18 21:25:33;;;;;;;5.47;3.95;;;;;;;20.31;46.09;96676.78;10390029;28;20096;-56
2023/03/18 21:30:53;;;;;;;5.85;4.00;;;;;;;20.29;46.16;96676.31;10390499;28;20433;-56
2023/03/18 21:36:12;;;;;;;5.30;3.72;;;;;;;20.29;46.01;96678.25;10374910;28;20042;-56
2023/03/18 21:41:32;;;;;;;4.70;3.72;;;;;;;20.28;46.07;96682.84;10383973;28;20522;-56
2023/03/18 21:46:52;;;;;;;4.60;3.88;;;;;;;20.26;45.97;96676.97;10389576;28;20049;-56
2023/03/18 21:52:24;;;;;;;4.80;4.22;;;;;;;20.25;46.30;96688.94;10389381;28;20049;-55
2023/03/18 21:57:43;;;;;;;7.40;3.90;;;;;;;20.25;46.06;96675.41;10388849;28;20033;-57
2023/03/18 22:03:12;;;;;;;4.53;3.60;;;;;;;20.23;46.01;96674.94;10388800;28;20041;-57
2023/03/18 22:08:31;;;;;;;4.70;3.88;;;;;;;20.23;45.95;96684.94;10373681;28;20061;-56
2023/03/18 22:13:52;;;;;;;5.00;3.40;;;;;;;20.20;45.85;96691.03;10388807;28;20057;-57
2023/03/18 22:19:12;;;;;;;5.05;3.88;;;;;;;20.19;45.98;96690.25;10387937;28;20042;-57
2023/03/18 22:24:31;;;;;;;4.80;3.72;;;;;;;20.19;45.92;96692.16;10373408;28;20038;-56
2023/03/18 22:29:52;;;;;;;4.93;3.67;;;;;;;20.18;45.88;96694.06;10388097;28;20556;-56
2023/03/18 22:35:21;;;;;;;5.80;3.60;;;;;;;20.15;46.11;96686.63;10388151;28;20041;-57
2023/03/18 22:40:41;;;;;;;5.38;3.53;;;;;;;20.14;46.04;96685.03;10384358;28;20054;-56
2023/03/18 22:46:04;;;;;;;4.20;3.13;;;;;;;20.12;45.98;96684.59;10387773;28;20061;-56
2023/03/18 22:51:28;;;;;;;4.20;3.53;;;;;;;20.12;46.16;96690.00;10387809;28;20068;-56
2023/03/18 22:56:48;;;;;;;4.18;3.75;;;;;;;20.09;46.28;96694.16;10387826;28;20042;-57
2023/03/18 23:02:17;;;;;;;7.22;3.60;;;;;;;20.08;46.47;96670.91;10374473;28;20089;-57
2023/03/18 23:07:36;;;;;;;5.38;3.72;;;;;;;20.07;46.47;96677.47;10374559;28;20058;-57
2023/03/18 23:12:55;;;;;;;5.63;3.70;;;;;;;20.07;46.59;96673.94;10387597;28;20042;-56
2023/03/18 23:18:16;;;;;;;5.10;3.70;;;;;;;20.05;46.50;96662.66;10387344;28;20053;-56
2023/03/18 23:23:36;;;;;;;8.35;3.83;;;;;;;20.04;46.62;96663.81;10387140;28;20041;-56
2023/03/18 23:28:55;;;;;;;4.03;3.35;;;;;;;20.03;46.48;96662.22;10387243;28;20045;-56
2023/03/18 23:34:15;;;;;;;4.70;3.60;;;;;;;20.01;46.67;96667.16;10394627;28;20057;-56
2023/03/18 23:39:35;;;;;;;4.45;3.60;;;;;;;20.00;46.43;96660.97;10394071;28;20092;-56
2023/03/18 23:44:54;;;;;;;3.90;3.40;;;;;;;20.00;46.35;96665.59;10394486;28;20037;-56
2023/03/18 23:50:13;;;;;;;4.28;3.30;;;;;;;19.98;46.42;96667.84;10381440;28;20049;-56
2023/03/18 23:55:34;;;;;;;4.55;3.40;;;;;;;19.97;46.30;96683.25;10394238;28;20042;-56
